Time;durP1;ratioP1;P1;durP2;ratioP2;P2;SDS_P1;SDS_P2;PMS_P1;PMS_P2;Temp;Humidity;BMP_temperature;BMP_pressure;BME280_temperature;BME280_humidity;BME280_pressure;Samples;Min_cycle;Max_cycle;Signal;HPM_P1;HPM_P2
2021/08/16 00:02:19;;;;;;;12.50;11.47;;;21.40;99.90;;;;;;4978189;28;20476;-88
2021/08/16 00:09:03;;;;;;;;;;;;;;;;;;;;;
2021/08/16 00:18:34;;;;;;;10.10;9.30;;;21.50;99.90;;;;;;4838583;29;20443;-87
2021/08/16 00:27:10;;;;;;;10.57;9.60;;;21.30;99.90;;;;;;4905411;29;20459;-88
2021/08/16 00:33:00;;;;;;;10.90;9.87;;;21.30;99.90;;;;;;4975974;28;20450;-88
2021/08/16 00:35:30;;;;;;;11.50;10.37;;;21.40;99.90;;;;;;4979390;28;20455;-88
2021/08/16 00:37:57;;;;;;;11.87;10.80;;;21.40;99.90;;;;;;4977912;28;20492;-88
2021/08/16 00:40:24;;;;;;;11.87;10.87;;;21.40;99.90;;;;;;4959680;28;20461;-88
2021/08/16 00:42:51;;;;;;;12.33;10.93;;;21.40;99.90;;;;;;4969035;28;20461;-88
2021/08/16 00:45:18;;;;;;;12.60;11.50;;;21.40;99.90;;;;;;4978956;28;20511;-88
2021/08/16 00:47:45;;;;;;;11.20;10.20;;;21.40;99.90;;;;;;4970690;28;20541;-88
2021/08/16 00:50:14;;;;;;;11.90;10.70;;;21.40;99.90;;;;;;4957287;29;20833;-88
2021/08/16 00:52:45;;;;;;;12.60;11.33;;;21.40;99.90;;;;;;4957709;28;20453;-88
2021/08/16 00:55:14;;;;;;;12.30;11.27;;;21.40;99.90;;;;;;4959947;28;20962;-88
2021/08/16 00:57:42;;;;;;;11.80;10.70;;;21.40;99.90;;;;;;4981361;28;20484;-88
2021/08/16 01:00:14;;;;;;;13.47;12.17;;;21.40;99.90;;;;;;4975933;28;20455;-88
2021/08/16 01:02:44;;;;;;;18.10;11.60;;;21.40;99.90;;;;;;4950817;29;20438;-87
2021/08/16 01:05:13;;;;;;;11.27;10.20;;;21.40;99.90;;;;;;4947264;28;20457;-88
2021/08/16 01:07:47;;;;;;;12.37;11.27;;;21.50;99.90;;;;;;4964854;28;20478;-88
2021/08/16 01:10:18;;;;;;;13.60;12.40;;;21.40;99.90;;;;;;4968750;28;20553;-88
2021/08/16 01:12:49;;;;;;;12.33;11.13;;;21.40;99.90;;;;;;4977051;28;20456;-87
2021/08/16 01:15:18;;;;;;;13.33;11.97;;;21.50;99.90;;;;;;4962091;28;20476;-87
2021/08/16 01:17:47;;;;;;;13.93;12.33;;;21.50;99.90;;;;;;4973184;28;20997;-88
2021/08/16 01:20:15;;;;;;;13.10;11.90;;;21.60;99.90;;;;;;4975928;28;20449;-87
2021/08/16 01:22:44;;;;;;;14.40;11.80;;;21.50;99.90;;;;;;4976700;28;20545;-88
2021/08/16 01:25:13;;;;;;;12.50;11.30;;;21.50;99.90;;;;;;4960683;28;20478;-88
2021/08/16 01:27:43;;;;;;;13.57;12.17;;;21.50;99.90;;;;;;4958257;28;20477;-87
2021/08/16 01:30:14;;;;;;;13.47;12.07;;;21.60;99.90;;;;;;4963461;29;20480;-87
2021/08/16 01:32:42;;;;;;;12.60;11.50;;;21.60;99.90;;;;;;4977149;28;20466;-87
2021/08/16 01:35:11;;;;;;;11.90;11.00;;;21.50;99.90;;;;;;4979978;28;20457;-87
2021/08/16 01:37:39;;;;;;;13.60;11.83;;;21.50;99.90;;;;;;4984257;28;20456;-87
2021/08/16 01:40:13;;;;;;;12.77;11.60;;;21.40;99.90;;;;;;4976518;28;20480;-87
2021/08/16 01:42:42;;;;;;;13.27;11.83;;;21.30;99.90;;;;;;4970198;28;20554;-87
2021/08/16 01:45:11;;;;;;;15.33;13.77;;;21.20;99.90;;;;;;4957317;28;20456;-87
2021/08/16 01:47:38;;;;;;;14.20;12.90;;;21.20;99.90;;;;;;4962070;28;20473;-87
2021/08/16 01:50:06;;;;;;;13.23;12.00;;;21.20;99.90;;;;;;4979373;28;20480;-87
2021/08/16 01:52:34;;;;;;;16.97;13.53;;;21.20;99.90;;;;;;4970345;28;20458;-87
2021/08/16 01:55:01;;;;;;;12.73;11.40;;;21.20;99.90;;;;;;4981673;28;20511;-87
2021/08/16 01:57:30;;;;;;;13.50;12.30;;;21.20;99.90;;;;;;4976993;28;20496;-87
2021/08/16 02:00:01;;;;;;;14.30;12.90;;;21.20;99.90;;;;;;4975542;28;20464;-87
2021/08/16 02:02:32;;;;;;;13.60;12.30;;;21.20;99.90;;;;;;4976338;28;20880;-88
2021/08/16 02:04:59;;;;;;;12.90;11.57;;;21.20;99.90;;;;;;4974427;28;20453;-88
2021/08/16 02:07:26;;;;;;;14.03;12.77;;;21.20;99.90;;;;;;4963425;28;20483;-88
2021/08/16 02:09:56;;;;;;;14.70;13.20;;;21.20;99.90;;;;;;4956426;28;20491;-88
2021/08/16 02:12:24;;;;;;;14.63;13.30;;;21.20;99.90;;;;;;4937612;29;20459;-88
2021/08/16 02:14:51;;;;;;;13.83;12.67;;;21.30;99.90;;;;;;4937151;29;20545;-87
2021/08/16 02:17:25;;;;;;;14.97;13.70;;;21.40;99.90;;;;;;4940375;28;20814;-88
2021/08/16 02:19:56;;;;;;;14.20;12.97;;;21.40;99.90;;;;;;4957105;28;20480;-87
2021/08/16 02:22:26;;;;;;;14.40;12.93;;;21.40;99.90;;;;;;4976102;28;20913;-88
2021/08/16 02:24:53;;;;;;;13.63;12.07;;;21.40;99.90;;;;;;4977167;28;20863;-88
2021/08/16 02:27:20;;;;;;;13.00;11.47;;;21.50;99.90;;;;;;4975385;28;20453;-88
2021/08/16 02:29:49;;;;;;;14.37;12.97;;;21.50;99.90;;;;;;4973522;28;20878;-88
2021/08/16 02:32:20;;;;;;;16.27;13.00;;;21.50;99.90;;;;;;4974454;28;20595;-88
2021/08/16 02:34:51;;;;;;;22.30;13.70;;;21.50;99.90;;;;;;4975199;28;20497;-88
2021/08/16 02:37:22;;;;;;;16.40;14.80;;;21.50;99.90;;;;;;4975068;28;20476;-88
2021/08/16 02:39:50;;;;;;;16.17;14.57;;;21.60;99.90;;;;;;4971544;28;20449;-88
2021/08/16 02:42:17;;;;;;;15.27;13.77;;;21.50;99.90;;;;;;4955732;28;20490;-88
2021/08/16 02:44:45;;;;;;;14.77;13.47;;;21.60;99.90;;;;;;4955678;28;20555;-87
2021/08/16 02:47:16;;;;;;;14.67;13.10;;;21.60;99.90;;;;;;4955263;28;20503;-87
2021/08/16 02:49:44;;;;;;;14.93;13.53;;;21.60;99.90;;;;;;4968955;28;20483;-87
2021/08/16 02:52:14;;;;;;;14.80;13.20;;;21.60;99.90;;;;;;4972390;28;20446;-87
2021/08/16 02:54:44;;;;;;;13.90;12.60;;;21.60;99.90;;;;;;4956632;29;20462;-88
2021/08/16 02:57:16;;;;;;;12.20;11.20;;;21.70;99.90;;;;;;4958257;28;20498;-88
2021/08/16 02:59:44;;;;;;;14.27;12.97;;;21.70;99.90;;;;;;4957709;28;20465;-88
2021/08/16 03:02:11;;;;;;;14.40;13.00;;;21.80;99.90;;;;;;4955895;28;20500;-88
2021/08/16 03:04:38;;;;;;;13.10;11.73;;;21.80;99.90;;;;;;4959195;28;20498;-87
2021/08/16 03:07:09;;;;;;;14.50;12.97;;;21.80;99.90;;;;;;4962114;28;20480;-87
2021/08/16 03:09:38;;;;;;;12.50;11.40;;;21.80;99.90;;;;;;4981349;28;20458;-87
2021/08/16 03:12:09;;;;;;;14.30;11.33;;;21.70;99.90;;;;;;4960392;28;20444;-88
2021/08/16 03:15:04;;;;;;;12.77;11.67;;;21.80;99.90;;;;;;4973743;28;20446;-87
2021/08/16 03:17:31;;;;;;;13.47;12.30;;;21.70;99.90;;;;;;4975928;29;20471;-88
2021/08/16 03:19:58;;;;;;;13.27;11.90;;;21.60;99.90;;;;;;4991420;28;20484;-88
2021/08/16 03:22:27;;;;;;;17.40;11.10;;;21.60;99.90;;;;;;4994260;28;20465;-88
2021/08/16 03:24:58;;;;;;;12.83;11.70;;;21.60;99.90;;;;;;4997628;28;20436;-87
2021/08/16 03:27:26;;;;;;;12.50;11.20;;;21.50;99.90;;;;;;4988181;28;20818;-88
2021/08/16 03:29:57;;;;;;;15.93;11.87;;;21.60;99.90;;;;;;4975230;28;20481;-88
2021/08/16 03:32:28;;;;;;;12.03;10.63;;;21.60;99.90;;;;;;4972795;28;20458;-88
2021/08/16 03:34:57;;;;;;;12.70;11.40;;;21.50;99.90;;;;;;4971587;29;20482;-88
2021/08/16 03:37:32;;;;;;;11.87;10.63;;;21.50;99.90;;;;;;4977729;28;20565;-88
2021/08/16 03:40:00;;;;;;;11.80;10.73;;;21.50;99.90;;;;;;4962837;28;20492;-89
2021/08/16 03:42:26;;;;;;;12.40;11.20;;;21.50;99.90;;;;;;4957006;28;20458;-89
2021/08/16 03:44:54;;;;;;;12.93;11.73;;;21.50;99.90;;;;;;4962205;28;20559;-90
2021/08/16 03:47:21;;;;;;;12.07;10.97;;;21.50;99.90;;;;;;4978336;28;20554;-84
2021/08/16 03:49:47;;;;;;;13.80;11.93;;;21.50;99.90;;;;;;4977949;28;20446;-87
2021/08/16 03:52:14;;;;;;;15.43;12.20;;;21.50;99.90;;;;;;4975257;28;20442;-86
2021/08/16 03:54:41;;;;;;;11.37;10.30;;;21.50;99.90;;;;;;4979454;29;20471;-87
2021/08/16 03:57:09;;;;;;;13.70;11.73;;;21.60;99.90;;;;;;4960485;28;20474;-87
2021/08/16 03:59:36;;;;;;;13.07;11.50;;;21.70;99.90;;;;;;4958570;29;20458;-87
2021/08/16 04:02:04;;;;;;;13.10;11.80;;;21.70;99.90;;;;;;4966083;28;20455;-86
2021/08/16 04:04:30;;;;;;;15.70;11.93;;;21.70;99.90;;;;;;4981718;28;20475;-87
2021/08/16 04:06:57;;;;;;;12.53;11.23;;;21.70;99.90;;;;;;4996768;28;20544;-88
2021/08/16 04:09:26;;;;;;;12.83;11.63;;;21.70;99.90;;;;;;4989084;28;20441;-88
2021/08/16 04:11:53;;;;;;;13.53;11.37;;;21.50;99.90;;;;;;4993205;28;20477;-86
2021/08/16 04:14:21;;;;;;;12.83;11.50;;;21.50;99.90;;;;;;4992230;28;20451;-87
2021/08/16 04:16:48;;;;;;;13.70;12.53;;;21.50;99.90;;;;;;4987888;28;20466;-88
2021/08/16 04:19:16;;;;;;;12.70;11.37;;;21.40;99.90;;;;;;4984406;28;20951;-88
2021/08/16 04:21:43;;;;;;;13.43;12.33;;;21.40;99.90;;;;;;4983448;28;20453;-88
2021/08/16 04:24:10;;;;;;;15.70;13.00;;;21.40;99.90;;;;;;4974361;28;21096;-91
2021/08/16 04:26:37;;;;;;;13.67;12.37;;;21.30;99.90;;;;;;4959195;29;20450;-88
2021/08/16 04:29:03;;;;;;;14.33;12.80;;;21.20;99.90;;;;;;4959573;28;20446;-88
2021/08/16 04:31:32;;;;;;;16.97;13.73;;;21.20;99.90;;;;;;4958704;29;20482;-90
2021/08/16 04:33:59;;;;;;;12.77;11.53;;;21.20;99.90;;;;;;4958270;28;20476;-89
2021/08/16 04:36:25;;;;;;;13.93;12.63;;;21.20;99.90;;;;;;4959477;29;21013;-88
2021/08/16 04:38:52;;;;;;;14.50;13.10;;;21.20;99.90;;;;;;4961270;28;20448;-88
2021/08/16 04:41:19;;;;;;;13.20;11.90;;;21.10;99.90;;;;;;4963951;28;20449;-89
2021/08/16 04:43:46;;;;;;;13.27;12.20;;;21.10;99.90;;;;;;4958862;29;20445;-88
2021/08/16 04:46:12;;;;;;;17.23;11.87;;;21.10;99.90;;;;;;4957510;28;21008;-88
2021/08/16 04:48:41;;;;;;;14.43;13.13;;;21.20;99.90;;;;;;4956856;29;20541;-89
2021/08/16 04:51:07;;;;;;;12.60;11.50;;;21.30;99.90;;;;;;4955991;29;20481;-89
2021/08/16 04:53:34;;;;;;;12.23;11.03;;;21.40;99.90;;;;;;4958612;28;20946;-88
2021/08/16 04:56:01;;;;;;;11.83;10.30;;;21.50;99.90;;;;;;4956928;29;20492;-89
2021/08/16 04:58:27;;;;;;;12.73;11.53;;;21.60;99.90;;;;;;4964817;28;20467;-89
2021/08/16 05:00:54;;;;;;;12.20;10.07;;;21.80;99.90;;;;;;4957450;29;20463;-89
2021/08/16 05:03:21;;;;;;;11.80;9.80;;;22.00;99.90;;;;;;4963833;28;20456;-90
2021/08/16 05:05:52;;;;;;;11.70;10.60;;;22.00;99.90;;;;;;4973117;28;20447;-89
2021/08/16 05:08:19;;;;;;;11.80;10.57;;;22.00;99.90;;;;;;4972112;28;20501;-88
2021/08/16 05:10:46;;;;;;;11.17;9.40;;;22.00;99.90;;;;;;4963181;28;20482;-89
2021/08/16 05:13:13;;;;;;;11.83;9.17;;;22.00;99.90;;;;;;4958795;28;20812;-89
2021/08/16 05:15:43;;;;;;;10.43;9.10;;;21.90;99.90;;;;;;4976646;23;20503;-86
2021/08/16 05:18:10;;;;;;;9.13;8.43;;;21.90;99.90;;;;;;4939384;28;20458;-87
2021/08/16 05:20:37;;;;;;;11.33;9.40;;;22.00;99.90;;;;;;4941085;29;20459;-86
2021/08/16 05:23:06;;;;;;;9.17;8.00;;;21.90;99.90;;;;;;4941680;29;20838;-86
2021/08/16 05:25:33;;;;;;;10.73;9.63;;;22.00;99.90;;;;;;4931870;29;20469;-87
2021/08/16 05:28:00;;;;;;;11.60;9.17;;;22.00;99.90;;;;;;4921709;29;20953;-86
2021/08/16 05:30:27;;;;;;;11.80;8.93;;;22.10;99.90;;;;;;4923659;29;20524;-86
2021/08/16 05:32:54;;;;;;;10.23;8.33;;;22.30;99.90;;;;;;4921786;29;20457;-87
2021/08/16 05:35:20;;;;;;;12.33;8.80;;;22.20;99.90;;;;;;4923069;29;20836;-86
2021/08/16 05:37:47;;;;;;;8.70;7.83;;;22.20;99.90;;;;;;4927771;29;20518;-87
2021/08/16 05:40:17;;;;;;;8.40;7.50;;;22.20;99.90;;;;;;4940107;29;20962;-86
2021/08/16 05:42:43;;;;;;;8.90;7.83;;;22.10;99.90;;;;;;4927359;29;20444;-87
2021/08/16 05:45:11;;;;;;;9.33;7.43;;;22.10;99.90;;;;;;4922754;29;20479;-87
2021/08/16 05:47:41;;;;;;;9.60;8.10;;;22.10;99.90;;;;;;4929047;29;20455;-86
2021/08/16 05:50:08;;;;;;;9.50;7.63;;;22.00;99.90;;;;;;4925605;29;20659;-87
2021/08/16 05:52:35;;;;;;;9.20;7.20;;;22.00;99.90;;;;;;4928168;29;20544;-86
2021/08/16 05:55:03;;;;;;;8.93;7.90;;;22.00;99.90;;;;;;4923019;29;20474;-86
2021/08/16 05:57:31;;;;;;;10.70;9.27;;;21.90;99.90;;;;;;4923257;29;20460;-87
2021/08/16 05:59:58;;;;;;;12.20;7.80;;;21.90;99.90;;;;;;4921000;29;20457;-86
2021/08/16 06:02:25;;;;;;;9.63;8.30;;;21.90;99.90;;;;;;4921022;29;20449;-87
2021/08/16 06:04:51;;;;;;;7.67;7.07;;;22.00;99.90;;;;;;4920657;29;20479;-87
2021/08/16 06:07:20;;;;;;;8.37;7.07;;;22.10;99.90;;;;;;4931591;29;20457;-86
2021/08/16 06:09:47;;;;;;;7.63;6.67;;;22.10;99.90;;;;;;4929781;29;20475;-86
2021/08/16 06:12:14;;;;;;;11.43;6.70;;;22.10;99.90;;;;;;4929165;29;20495;-86
2021/08/16 06:14:42;;;;;;;7.13;6.27;;;22.20;99.90;;;;;;4924272;29;20459;-86
2021/08/16 06:17:08;;;;;;;6.80;6.10;;;22.20;99.90;;;;;;4925167;29;20455;-86
2021/08/16 06:19:35;;;;;;;6.93;6.33;;;22.40;99.90;;;;;;4944384;29;20441;-86
2021/08/16 06:22:03;;;;;;;7.17;6.43;;;22.60;99.90;;;;;;4947946;29;20848;-86
2021/08/16 06:24:29;;;;;;;7.13;6.30;;;22.60;99.90;;;;;;4926690;29;20452;-86
2021/08/16 06:26:56;;;;;;;7.30;5.60;;;22.80;99.90;;;;;;4924080;29;20443;-86
2021/08/16 06:29:23;;;;;;;7.13;6.43;;;22.80;99.90;;;;;;4936762;29;20441;-86
2021/08/16 06:31:51;;;;;;;10.20;7.17;;;23.30;99.90;;;;;;4925174;29;20482;-85
2021/08/16 06:34:22;;;;;;;10.37;6.77;;;24.30;99.90;;;;;;4925250;29;20465;-86
2021/08/16 06:36:53;;;;;;;6.90;6.20;;;24.90;99.90;;;;;;4924574;29;20454;-85
2021/08/16 06:39:21;;;;;;;8.30;7.50;;;25.20;99.90;;;;;;4930853;29;20456;-86
2021/08/16 06:41:49;;;;;;;5.57;4.70;;;25.80;99.10;;;;;;4950808;29;20497;-86
2021/08/16 06:44:17;;;;;;;6.93;5.73;;;26.20;97.70;;;;;;4941805;29;20454;-85
2021/08/16 06:46:44;;;;;;;10.30;5.93;;;25.90;97.30;;;;;;4923634;29;20471;-85
2021/08/16 06:49:12;;;;;;;13.40;6.70;;;25.50;97.70;;;;;;4940138;29;20465;-86
2021/08/16 06:51:39;;;;;;;8.10;6.57;;;25.30;98.00;;;;;;4939607;29;20493;-86
2021/08/16 06:54:06;;;;;;;7.10;6.17;;;25.70;98.10;;;;;;4921403;29;20463;-86
2021/08/16 06:56:33;;;;;;;8.37;6.10;;;26.10;96.80;;;;;;4930497;29;20478;-86
2021/08/16 06:59:00;;;;;;;5.70;5.20;;;26.00;95.90;;;;;;4935087;29;20450;-85
2021/08/16 07:01:28;;;;;;;6.63;5.77;;;26.00;95.60;;;;;;4940761;29;20449;-85
2021/08/16 07:03:56;;;;;;;5.67;5.13;;;26.00;95.10;;;;;;4932416;29;20451;-87
2021/08/16 07:06:24;;;;;;;7.67;5.40;;;25.70;95.20;;;;;;4920223;29;20477;-86
2021/08/16 07:08:52;;;;;;;6.20;5.70;;;25.50;95.60;;;;;;4920535;29;20461;-88
2021/08/16 07:11:19;;;;;;;5.47;4.97;;;25.20;95.90;;;;;;4923628;29;20490;-86
2021/08/16 07:13:46;;;;;;;7.87;5.40;;;25.30;96.40;;;;;;4945501;29;20907;-85
2021/08/16 07:16:12;;;;;;;7.40;5.13;;;26.30;94.90;;;;;;4959014;29;20462;-87
2021/08/16 07:18:40;;;;;;;6.80;5.33;;;26.50;93.90;;;;;;4955414;29;20450;-86
2021/08/16 07:21:07;;;;;;;7.77;5.27;;;26.10;93.80;;;;;;4956681;29;20453;-86
2021/08/16 07:23:38;;;;;;;6.80;5.10;;;25.80;94.20;;;;;;4957071;29;20445;-86
2021/08/16 07:26:06;;;;;;;6.80;5.27;;;25.50;94.20;;;;;;4951701;29;20456;-86
2021/08/16 07:28:35;;;;;;;5.53;5.00;;;25.20;94.60;;;;;;4951634;29;20453;-86
2021/08/16 07:31:02;;;;;;;8.20;5.20;;;24.80;95.20;;;;;;4946236;29;20453;-86
2021/08/16 07:33:29;;;;;;;7.13;5.40;;;24.60;95.70;;;;;;4946576;29;20453;-86
2021/08/16 07:35:56;;;;;;;5.60;5.10;;;24.50;95.90;;;;;;4946467;29;20469;-85
2021/08/16 07:38:22;;;;;;;8.20;5.47;;;24.60;96.20;;;;;;4948151;29;20457;-85
2021/08/16 07:40:51;;;;;;;6.27;5.27;;;24.70;96.10;;;;;;4947192;29;20460;-85
2021/08/16 07:43:20;;;;;;;6.10;4.73;;;24.70;95.70;;;;;;4945611;29;20450;-85
2021/08/16 07:45:47;;;;;;;7.67;4.87;;;24.50;95.60;;;;;;4945775;29;20566;-85
2021/08/16 07:48:13;;;;;;;7.20;4.83;;;24.50;95.30;;;;;;4947149;29;20441;-85
2021/08/16 07:50:40;;;;;;;5.27;4.77;;;24.70;94.60;;;;;;4947815;29;20482;-86
2021/08/16 07:53:08;;;;;;;5.40;4.90;;;24.80;93.60;;;;;;4932639;29;20491;-86
2021/08/16 07:55:34;;;;;;;6.63;4.63;;;25.00;93.40;;;;;;4925033;29;20500;-86
2021/08/16 07:58:03;;;;;;;5.63;5.13;;;25.00;93.30;;;;;;4924560;29;20928;-85
2021/08/16 08:00:29;;;;;;;6.33;4.50;;;25.00;93.50;;;;;;4924623;29;20450;-86
2021/08/16 08:02:56;;;;;;;5.77;4.40;;;25.10;93.20;;;;;;4925134;29;20815;-85
2021/08/16 08:05:24;;;;;;;6.20;5.03;;;25.50;92.90;;;;;;4924653;29;20474;-86
2021/08/16 08:07:51;;;;;;;6.83;4.03;;;25.80;91.80;;;;;;4927552;29;20455;-86
2021/08/16 08:10:20;;;;;;;5.13;4.60;;;26.00;91.70;;;;;;4930683;29;20442;-86
2021/08/16 08:12:48;;;;;;;5.07;3.97;;;26.00;90.30;;;;;;4934918;29;20482;-86
2021/08/16 08:15:17;;;;;;;8.53;5.27;;;25.60;90.60;;;;;;4925937;29;20998;-86
2021/08/16 08:17:44;;;;;;;5.70;4.50;;;25.50;90.60;;;;;;4926453;29;20461;-84
2021/08/16 08:20:11;;;;;;;6.07;4.73;;;25.30;91.00;;;;;;4929829;29;20842;-86
2021/08/16 08:22:38;;;;;;;4.83;4.43;;;25.30;91.00;;;;;;4954523;29;20426;-86
2021/08/16 08:25:06;;;;;;;6.57;4.17;;;25.30;91.00;;;;;;4961049;29;20499;-86
2021/08/16 08:27:33;;;;;;;5.87;4.57;;;25.20;91.10;;;;;;4944156;29;20457;-86
2021/08/16 08:30:00;;;;;;;5.83;4.17;;;25.30;90.90;;;;;;4940768;29;20456;-86
2021/08/16 08:32:28;;;;;;;4.63;4.23;;;25.50;90.90;;;;;;4942839;29;20500;-86
2021/08/16 08:34:56;;;;;;;7.13;4.90;;;25.80;90.40;;;;;;4945318;29;20470;-86
2021/08/16 08:37:22;;;;;;;4.80;4.30;;;26.10;89.90;;;;;;4942715;29;20458;-86
2021/08/16 08:39:49;;;;;;;5.73;4.63;;;26.20;88.60;;;;;;4945052;29;20451;-86
2021/08/16 08:42:16;;;;;;;4.73;4.20;;;26.20;89.00;;;;;;4945875;29;20445;-86
2021/08/16 08:44:44;;;;;;;5.63;4.47;;;26.80;87.50;;;;;;4945590;29;20857;-86
2021/08/16 08:47:13;;;;;;;4.73;4.00;;;26.90;86.20;;;;;;4944615;29;20461;-85
2021/08/16 08:49:41;;;;;;;5.57;4.80;;;26.90;85.80;;;;;;4940857;29;20436;-84
2021/08/16 08:52:08;;;;;;;9.50;4.87;;;26.40;86.30;;;;;;4929115;29;20495;-84
2021/08/16 08:54:36;;;;;;;6.17;5.53;;;26.00;87.20;;;;;;4923372;29;20461;-85
2021/08/16 08:57:04;;;;;;;5.90;5.10;;;25.70;88.70;;;;;;4922443;29;20450;-84
2021/08/16 08:59:31;;;;;;;7.33;4.50;;;25.60;89.20;;;;;;4923899;29;20454;-85
2021/08/16 09:02:00;;;;;;;8.83;4.93;;;25.50;89.60;;;;;;4923851;29;20454;-85
2021/08/16 09:04:28;;;;;;;6.37;3.90;;;25.30;89.80;;;;;;4922246;29;21035;-85
2021/08/16 09:06:56;;;;;;;5.90;4.77;;;25.30;90.10;;;;;;4921052;29;20494;-85
2021/08/16 09:09:23;;;;;;;7.63;5.40;;;25.50;90.10;;;;;;4923236;29;20458;-85
2021/08/16 09:11:51;;;;;;;6.13;4.80;;;25.90;89.20;;;;;;4920797;29;20496;-85
2021/08/16 09:14:19;;;;;;;5.50;4.57;;;26.10;88.70;;;;;;4921986;29;20451;-85
2021/08/16 09:16:47;;;;;;;6.37;5.30;;;26.20;87.90;;;;;;4924077;29;21013;-85
2021/08/16 09:19:16;;;;;;;8.00;4.90;;;26.30;86.90;;;;;;4940892;29;20454;-85
2021/08/16 09:21:45;;;;;;;7.53;5.77;;;26.80;85.90;;;;;;4942348;29;20455;-85
2021/08/16 09:24:13;;;;;;;5.40;4.90;;;27.10;82.10;;;;;;4939277;29;20496;-85
2021/08/16 09:26:43;;;;;;;6.30;5.17;;;27.40;80.50;;;;;;4940415;29;20480;-85
2021/08/16 09:29:11;;;;;;;5.87;5.27;;;27.10;79.80;;;;;;4946417;29;20461;-85
2021/08/16 09:31:38;;;;;;;6.43;5.70;;;26.60;81.20;;;;;;4944121;29;20456;-85
2021/08/16 09:34:06;;;;;;;7.77;5.30;;;26.50;81.70;;;;;;4941610;29;20868;-85
2021/08/16 09:36:37;;;;;;;8.27;5.17;;;26.50;81.70;;;;;;4945370;29;20498;-85
2021/08/16 09:39:04;;;;;;;6.60;4.70;;;26.20;82.60;;;;;;4942021;29;20457;-85
2021/08/16 09:41:32;;;;;;;8.30;5.97;;;26.10;82.00;;;;;;4957421;29;20430;-85
2021/08/16 09:44:09;;;;;;;9.10;5.37;;;26.10;83.10;;;;;;4958487;29;20447;-85
2021/08/16 09:46:37;;;;;;;6.00;4.90;;;26.00;82.70;;;;;;4934094;29;20498;-86
2021/08/16 09:49:05;;;;;;;9.40;5.60;;;26.10;82.90;;;;;;4936550;29;20454;-85
2021/08/16 09:51:33;;;;;;;8.03;5.00;;;26.10;82.60;;;;;;4925699;29;20473;-84
2021/08/16 09:54:03;;;;;;;8.47;5.40;;;25.90;82.40;;;;;;4926142;29;20453;-85
2021/08/16 09:56:33;;;;;;;7.27;6.00;;;25.60;82.50;;;;;;4932078;29;21009;-86
2021/08/16 09:58:59;;;;;;;8.57;4.93;;;25.40;83.30;;;;;;4924893;29;20458;-85
2021/08/16 10:01:27;;;;;;;8.80;5.70;;;25.20;83.70;;;;;;4925024;29;20454;-85
2021/08/16 10:03:53;;;;;;;6.90;4.63;;;25.00;84.70;;;;;;4922369;29;20835;-85
2021/08/16 10:06:20;;;;;;;6.90;5.57;;;25.20;85.40;;;;;;4919990;29;20858;-85
2021/08/16 10:08:50;;;;;;;7.57;5.10;;;25.20;84.20;;;;;;4920906;29;20459;-85
2021/08/16 10:11:19;;;;;;;8.37;4.57;;;25.20;84.40;;;;;;4921339;29;20451;-85
2021/08/16 10:13:50;;;;;;;9.70;4.33;;;25.20;84.20;;;;;;4928145;29;20523;-85
2021/08/16 10:16:20;;;;;;;6.43;4.50;;;25.10;84.50;;;;;;4956465;29;20462;-85
2021/08/16 10:18:50;;;;;;;7.93;5.60;;;25.30;84.50;;;;;;4949155;29;20983;-85
2021/08/16 10:21:18;;;;;;;7.13;5.00;;;25.40;83.50;;;;;;4941290;29;20609;-85
2021/08/16 10:23:49;;;;;;;10.00;4.23;;;25.20;83.00;;;;;;4945540;29;20445;-85
2021/08/16 10:26:28;;;;;;;8.30;5.00;;;25.10;84.20;;;;;;4943056;29;20833;-85
2021/08/16 10:28:58;;;;;;;5.87;4.80;;;25.00;82.90;;;;;;4939682;29;20826;-86
2021/08/16 10:31:30;;;;;;;11.40;4.77;;;25.00;83.20;;;;;;4943363;29;20442;-85
2021/08/16 10:33:59;;;;;;;5.60;5.07;;;25.00;82.20;;;;;;4947090;29;20481;-86
2021/08/16 10:36:26;;;;;;;7.97;5.60;;;24.90;81.60;;;;;;4945565;29;21058;-85
2021/08/16 10:38:55;;;;;;;6.63;5.13;;;25.10;81.20;;;;;;4947281;29;20521;-86
2021/08/16 10:41:26;;;;;;;21.70;12.00;;;24.90;81.20;;;;;;4945073;29;20541;-86
2021/08/16 10:43:54;;;;;;;7.57;5.70;;;25.00;81.70;;;;;;4924800;29;20447;-86
2021/08/16 10:46:23;;;;;;;8.50;5.63;;;24.90;81.70;;;;;;4924817;29;20569;-85
2021/08/16 10:49:00;;;;;;;6.37;4.90;;;25.10;81.30;;;;;;4925129;29;20976;-86
2021/08/16 10:51:38;;;;;;;6.63;5.13;;;25.40;80.40;;;;;;4924891;29;20457;-86
2021/08/16 10:54:05;;;;;;;5.70;4.63;;;25.30;80.10;;;;;;4925856;29;20995;-86
2021/08/16 10:56:32;;;;;;;6.60;5.20;;;25.20;80.50;;;;;;4928255;29;20476;-85
2021/08/16 10:59:00;;;;;;;8.00;4.77;;;25.20;80.60;;;;;;4936354;29;20456;-86
2021/08/16 11:01:29;;;;;;;5.70;4.13;;;25.90;79.40;;;;;;4926755;29;20462;-86
2021/08/16 11:03:57;;;;;;;5.83;4.77;;;26.40;76.40;;;;;;4925051;29;20872;-86
2021/08/16 11:06:24;;;;;;;7.27;4.50;;;26.80;75.20;;;;;;4923660;29;20486;-84
2021/08/16 11:08:56;;;;;;;6.20;5.40;;;27.20;73.70;;;;;;4926002;29;20448;-84
2021/08/16 11:11:25;;;;;;;6.70;4.00;;;27.20;73.10;;;;;;4930274;29;20469;-85
2021/08/16 11:14:03;;;;;;;5.23;3.83;;;27.00;73.10;;;;;;4918852;29;20575;-85
2021/08/16 11:16:31;;;;;;;4.90;4.27;;;28.10;72.50;;;;;;4961267;23;20528;-84
2021/08/16 11:18:58;;;;;;;7.70;4.77;;;30.60;65.80;;;;;;4959502;29;20449;-84
2021/08/16 11:21:26;;;;;;;4.40;4.00;;;33.10;58.70;;;;;;4967751;28;20437;-82
2021/08/16 11:23:57;;;;;;;6.20;3.60;;;34.20;55.20;;;;;;4963233;28;20881;-84
2021/08/16 11:26:24;;;;;;;5.27;4.33;;;34.90;52.50;;;;;;4976553;28;20448;-86
2021/08/16 11:28:51;;;;;;;6.47;5.20;;;36.00;50.60;;;;;;4975440;28;20448;-84
2021/08/16 11:31:17;;;;;;;6.20;4.30;;;37.10;46.80;;;;;;4981354;28;20444;-84
2021/08/16 11:33:45;;;;;;;5.47;3.77;;;35.90;46.30;;;;;;4977842;28;20471;-84
2021/08/16 11:36:14;;;;;;;11.03;4.73;;;34.40;48.50;;;;;;4976915;28;20472;-85
2021/08/16 11:38:43;;;;;;;5.27;4.30;;;32.30;51.40;;;;;;4976163;28;20436;-84
2021/08/16 11:41:12;;;;;;;8.27;4.40;;;30.70;54.30;;;;;;4986304;28;20462;-83
2021/08/16 11:43:39;;;;;;;6.20;4.47;;;29.90;56.20;;;;;;4979951;28;20448;-84
2021/08/16 11:46:14;;;;;;;5.57;4.60;;;29.20;57.80;;;;;;4957367;28;20476;-85
2021/08/16 11:48:43;;;;;;;8.73;5.30;;;30.20;57.80;;;;;;4956238;28;20444;-86
2021/08/16 11:51:11;;;;;;;8.23;4.40;;;32.50;54.40;;;;;;4957929;28;20481;-86
2021/08/16 11:53:43;;;;;;;7.53;4.20;;;34.10;51.70;;;;;;4959446;28;20488;-86
2021/08/16 11:56:10;;;;;;;5.20;4.70;;;34.20;50.00;;;;;;4956552;28;20557;-86
2021/08/16 11:58:38;;;;;;;6.93;3.93;;;34.50;49.60;;;;;;4962740;28;20443;-85
2021/08/16 12:01:05;;;;;;;6.40;4.13;;;33.90;50.50;;;;;;4984169;28;20448;-85
2021/08/16 12:03:34;;;;;;;8.33;5.73;;;33.60;49.90;;;;;;4991336;28;20448;-84
2021/08/16 12:06:01;;;;;;;6.77;4.37;;;32.30;51.80;;;;;;4993525;28;20467;-84
2021/08/16 12:08:30;;;;;;;5.77;3.97;;;32.60;52.90;;;;;;4997040;28;20439;-84
2021/08/16 12:10:57;;;;;;;6.60;4.00;;;33.60;50.20;;;;;;4995945;28;20440;-86
2021/08/16 12:13:25;;;;;;;4.33;3.83;;;35.30;48.90;;;;;;4991301;28;20480;-85
2021/08/16 12:15:53;;;;;;;4.87;4.30;;;34.40;48.20;;;;;;4969483;28;21032;-84
2021/08/16 12:18:28;;;;;;;9.50;4.20;;;33.00;49.50;;;;;;4984351;28;20443;-84
2021/08/16 12:20:56;;;;;;;5.43;4.23;;;32.10;51.10;;;;;;4981169;28;20442;-84
2021/08/16 12:23:25;;;;;;;6.43;4.60;;;31.00;52.60;;;;;;4982658;28;20452;-85
2021/08/16 12:25:54;;;;;;;5.17;4.23;;;30.30;53.30;;;;;;4982607;28;20478;-84
2021/08/16 12:28:21;;;;;;;4.57;3.83;;;30.10;54.30;;;;;;4979563;28;20451;-85
2021/08/16 12:30:48;;;;;;;6.60;4.20;;;31.00;53.10;;;;;;4976401;28;20835;-85
2021/08/16 12:33:16;;;;;;;5.70;3.97;;;33.60;50.40;;;;;;4960101;28;20480;-86
2021/08/16 12:35:55;;;;;;;5.70;3.20;;;35.40;46.80;;;;;;4959993;28;20484;-85
2021/08/16 12:38:26;;;;;;;5.47;4.60;;;34.90;46.40;;;;;;4959546;28;20452;-86
2021/08/16 12:41:02;;;;;;;6.60;5.60;;;33.60;47.50;;;;;;4959788;28;20487;-84
2021/08/16 12:43:37;;;;;;;6.87;4.30;;;32.10;50.00;;;;;;4959867;28;20444;-85
2021/08/16 12:46:04;;;;;;;3.77;3.37;;;30.70;52.40;;;;;;4962863;28;20480;-85
2021/08/16 12:48:39;;;;;;;8.83;5.57;;;29.70;54.30;;;;;;4973577;28;20832;-85
2021/08/16 12:51:05;;;;;;;7.27;5.03;;;29.50;55.70;;;;;;4976594;28;20447;-85
2021/08/16 12:53:32;;;;;;;4.80;4.00;;;30.20;55.40;;;;;;4976847;28;20870;-85
2021/08/16 12:56:01;;;;;;;4.83;3.87;;;30.90;53.10;;;;;;4977384;28;20869;-84
2021/08/16 12:58:28;;;;;;;6.87;3.90;;;30.70;53.50;;;;;;4977177;28;20463;-85
2021/08/16 13:00:54;;;;;;;7.80;4.83;;;30.70;53.30;;;;;;4977762;28;20455;-84
2021/08/16 13:03:21;;;;;;;7.00;4.27;;;30.40;53.60;;;;;;4975939;28;20444;-87
2021/08/16 13:05:48;;;;;;;6.50;3.80;;;29.60;54.60;;;;;;4978398;28;20478;-87
2021/08/16 13:08:14;;;;;;;5.70;4.20;;;29.60;54.80;;;;;;4980303;28;20463;-87